Time;durP1;ratioP1;P1;durP2;ratioP2;P2;SDS_P1;SDS_P2;PMS_P1;PMS_P2;Temp;Humidity;BMP_temperature;BMP_pressure;BME280_temperature;BME280_humidity;BME280_pressure;Samples;Min_cycle;Max_cycle;Signal;HPM_P1;HPM_P2
2024/01/29 00:02:05;;;;;;;4.70;3.60;;;6.10;99.90;;;;;;5011135;28;20084;-67
2024/01/29 00:04:31;;;;;;;5.63;3.67;;;6.00;99.90;;;;;;5009235;28;20060;-67
2024/01/29 00:06:56;;;;;;;5.57;3.60;;;6.00;99.90;;;;;;5010765;28;20053;-67
2024/01/29 00:09:23;;;;;;;6.47;3.40;;;5.90;99.90;;;;;;5008854;28;20050;-68
2024/01/29 00:11:49;;;;;;;5.15;3.70;;;5.90;99.90;;;;;;5009967;28;20049;-68
2024/01/29 00:14:15;;;;;;;5.72;3.85;;;5.90;99.90;;;;;;5025465;28;20060;-67
2024/01/29 00:16:41;;;;;;;5.75;3.50;;;5.90;99.90;;;;;;5025851;28;20034;-68
2024/01/29 00:19:06;;;;;;;5.35;3.65;;;5.90;99.90;;;;;;5010407;28;20383;-68
2024/01/29 00:21:32;;;;;;;6.45;4.00;;;5.80;99.90;;;;;;5012210;28;20037;-68
2024/01/29 00:24:00;;;;;;;5.57;3.88;;;5.80;99.90;;;;;;5012306;28;20042;-68
2024/01/29 00:26:26;;;;;;;6.70;4.22;;;5.80;99.90;;;;;;5012230;28;20680;-68
2024/01/29 00:28:52;;;;;;;5.18;3.70;;;5.80;99.90;;;;;;5011619;28;20493;-67
2024/01/29 00:31:18;;;;;;;6.00;3.70;;;5.70;99.90;;;;;;5012110;28;20045;-67
2024/01/29 00:33:46;;;;;;;5.50;4.00;;;5.60;99.90;;;;;;5012256;28;20046;-67
2024/01/29 00:36:11;;;;;;;6.45;4.28;;;5.70;99.90;;;;;;5011830;28;20052;-67
2024/01/29 00:38:37;;;;;;;6.97;4.40;;;5.60;99.90;;;;;;5012276;28;20425;-68
2024/01/29 00:41:03;;;;;;;6.32;4.03;;;5.60;99.90;;;;;;5012175;28;20046;-67
2024/01/29 00:43:29;;;;;;;6.10;4.10;;;5.60;99.90;;;;;;5013267;28;20049;-67
2024/01/29 00:45:55;;;;;;;5.90;4.00;;;5.60;99.90;;;;;;5010610;28;20057;-67
2024/01/29 00:48:22;;;;;;;7.65;4.30;;;5.60;99.90;;;;;;5012076;28;20044;-67
2024/01/29 00:50:48;;;;;;;8.23;3.85;;;5.60;99.90;;;;;;5011766;28;20117;-67
2024/01/29 00:53:15;;;;;;;6.03;4.13;;;5.60;99.90;;;;;;5012113;28;20445;-67
2024/01/29 00:55:43;;;;;;;8.10;4.00;;;5.60;99.90;;;;;;5010945;28;20057;-67
2024/01/29 00:58:10;;;;;;;4.45;3.42;;;5.50;99.90;;;;;;5012009;28;20058;-67
2024/01/29 01:00:35;;;;;;;6.20;4.10;;;5.50;99.90;;;;;;5011667;28;20045;-68
2024/01/29 01:03:01;;;;;;;5.57;4.13;;;5.50;99.90;;;;;;5011764;28;20046;-67
2024/01/29 01:05:27;;;;;;;6.78;4.00;;;5.50;99.90;;;;;;5009942;28;20072;-67
2024/01/29 01:07:53;;;;;;;11.10;4.55;;;5.50;99.90;;;;;;5011625;28;20050;-68
2024/01/29 01:10:19;;;;;;;6.18;4.13;;;5.50;99.90;;;;;;5011574;28;20616;-67
2024/01/29 01:12:44;;;;;;;7.93;4.50;;;5.40;99.90;;;;;;5011398;28;20042;-67
2024/01/29 01:15:10;;;;;;;6.90;4.35;;;5.40;99.90;;;;;;5011556;28;20077;-67
2024/01/29 01:17:36;;;;;;;8.00;3.80;;;5.40;99.90;;;;;;5011146;28;20041;-67
2024/01/29 01:20:03;;;;;;;6.43;3.70;;;5.40;99.90;;;;;;5017231;28;20049;-67
2024/01/29 01:22:28;;;;;;;6.53;4.20;;;5.40;99.90;;;;;;5009385;28;20038;-67
2024/01/29 01:24:54;;;;;;;7.05;4.05;;;5.40;99.90;;;;;;5002315;28;20391;-67
2024/01/29 01:27:20;;;;;;;8.02;4.03;;;5.40;99.90;;;;;;4991075;28;20046;-67
2024/01/29 01:29:45;;;;;;;6.28;3.90;;;5.40;99.90;;;;;;4991606;28;20039;-67
2024/01/29 01:32:11;;;;;;;7.22;3.92;;;5.40;99.90;;;;;;4991414;28;20145;-68
2024/01/29 01:34:38;;;;;;;6.22;4.18;;;5.40;99.90;;;;;;4991253;28;20038;-67
2024/01/29 01:37:04;;;;;;;7.38;4.32;;;5.40;99.90;;;;;;4991192;28;20599;-67
2024/01/29 01:39:31;;;;;;;5.63;3.60;;;5.40;99.90;;;;;;4991100;28;20059;-67
2024/01/29 01:41:56;;;;;;;9.00;4.22;;;5.40;99.90;;;;;;4991162;28;20128;-67
2024/01/29 01:44:22;;;;;;;5.82;4.30;;;5.40;99.90;;;;;;4991410;28;20050;-67
2024/01/29 01:46:48;;;;;;;6.97;3.90;;;5.40;99.90;;;;;;4990988;28;20379;-68
2024/01/29 01:49:15;;;;;;;7.32;4.38;;;5.40;99.90;;;;;;4991079;28;20034;-67
2024/01/29 01:51:41;;;;;;;6.03;3.72;;;5.40;99.90;;;;;;4991183;28;20394;-67
2024/01/29 01:54:08;;;;;;;7.15;4.28;;;5.30;99.90;;;;;;4991061;28;20042;-67
2024/01/29 01:56:35;;;;;;;9.70;4.20;;;5.30;99.90;;;;;;4989556;28;20049;-67
2024/01/29 01:59:03;;;;;;;8.25;3.95;;;5.30;99.90;;;;;;5016712;28;20050;-67
2024/01/29 02:01:31;;;;;;;7.30;4.07;;;5.30;99.90;;;;;;5029007;28;20584;-68
2024/01/29 02:03:57;;;;;;;5.70;4.28;;;5.30;99.90;;;;;;5012223;28;20041;-68
2024/01/29 02:06:23;;;;;;;6.45;4.38;;;5.20;99.90;;;;;;5030131;28;20360;-68
2024/01/29 02:08:49;;;;;;;6.35;4.22;;;5.20;99.90;;;;;;5045002;28;20301;-68
2024/01/29 02:11:15;;;;;;;5.35;3.88;;;5.10;99.90;;;;;;5030234;28;20156;-68
2024/01/29 02:13:41;;;;;;;5.90;3.80;;;5.10;99.90;;;;;;5029995;28;20061;-68
2024/01/29 02:16:07;;;;;;;7.10;4.13;;;5.00;99.90;;;;;;5029913;28;20044;-68
2024/01/29 02:18:33;;;;;;;6.22;3.75;;;5.00;99.90;;;;;;5029969;28;20033;-68
2024/01/29 02:20:59;;;;;;;9.88;4.65;;;5.00;99.90;;;;;;5029916;28;20052;-68
2024/01/29 02:23:25;;;;;;;7.40;4.40;;;5.00;99.90;;;;;;5028836;28;20034;-68
2024/01/29 02:25:51;;;;;;;5.15;4.00;;;5.00;99.90;;;;;;5029739;28;20049;-68
2024/01/29 02:28:17;;;;;;;7.50;3.80;;;5.00;99.90;;;;;;5029761;28;20049;-68
2024/01/29 02:30:42;;;;;;;4.85;4.30;;;4.90;99.90;;;;;;5029709;28;20041;-68
2024/01/29 02:33:09;;;;;;;5.45;3.85;;;4.90;99.90;;;;;;5029687;28;20149;-68
2024/01/29 02:35:35;;;;;;;8.23;4.32;;;4.80;99.90;;;;;;5030013;28;20049;-68
2024/01/29 02:38:01;;;;;;;5.22;4.07;;;4.80;99.90;;;;;;5030105;28;20042;-68
2024/01/29 02:40:26;;;;;;;5.72;4.20;;;4.80;99.90;;;;;;5029738;28;20045;-68
2024/01/29 02:42:52;;;;;;;5.95;3.90;;;4.80;99.90;;;;;;5029732;28;20049;-67
2024/01/29 02:45:18;;;;;;;6.82;4.57;;;4.80;99.90;;;;;;5029510;28;20401;-68
2024/01/29 02:47:43;;;;;;;7.20;4.00;;;4.80;99.90;;;;;;5029210;28;20053;-68
2024/01/29 02:50:09;;;;;;;7.05;4.20;;;4.80;99.90;;;;;;5029878;28;20084;-68
2024/01/29 02:52:35;;;;;;;9.00;4.20;;;4.90;99.90;;;;;;5028452;28;20052;-68
2024/01/29 02:55:01;;;;;;;6.07;4.30;;;4.70;99.90;;;;;;5029594;28;20033;-68
2024/01/29 02:57:26;;;;;;;6.07;3.80;;;4.80;99.90;;;;;;5029472;28;20124;-68
2024/01/29 02:59:52;;;;;;;6.18;3.95;;;4.70;99.90;;;;;;5029467;28;20124;-68
2024/01/29 03:02:18;;;;;;;7.85;4.15;;;4.70;99.90;;;;;;5029509;28;20045;-68
2024/01/29 03:04:44;;;;;;;5.30;4.40;;;4.70;99.90;;;;;;5029594;28;20048;-68
2024/01/29 03:07:10;;;;;;;7.95;4.13;;;4.70;99.90;;;;;;5029779;28;20042;-68
2024/01/29 03:09:37;;;;;;;8.20;4.95;;;4.70;99.90;;;;;;5029559;28;20111;-68
2024/01/29 03:12:03;;;;;;;9.20;5.55;;;4.70;99.90;;;;;;5029409;28;20057;-68
2024/01/29 03:14:29;;;;;;;5.72;3.83;;;4.80;99.90;;;;;;5029352;28;20040;-68
2024/01/29 03:16:55;;;;;;;7.95;4.65;;;4.70;99.90;;;;;;5044539;28;20513;-68
2024/01/29 03:19:21;;;;;;;6.30;4.60;;;4.70;99.90;;;;;;5029407;28;20038;-68
2024/01/29 03:21:47;;;;;;;6.05;4.97;;;4.60;99.90;;;;;;5029371;28;20051;-68
2024/01/29 03:24:12;;;;;;;5.13;3.92;;;4.70;99.90;;;;;;5029587;28;20037;-68
2024/01/29 03:26:38;;;;;;;7.10;4.32;;;4.60;99.90;;;;;;5029086;28;20038;-68
2024/01/29 03:29:04;;;;;;;11.13;6.18;;;4.60;99.90;;;;;;5028910;28;20037;-68
2024/01/29 03:31:30;;;;;;;6.00;4.30;;;4.50;99.90;;;;;;5029220;28;20477;-68
2024/01/29 03:33:55;;;;;;;10.05;4.53;;;4.50;99.90;;;;;;5029394;28;20041;-68
2024/01/29 03:36:21;;;;;;;6.30;4.35;;;4.60;99.90;;;;;;5029215;28;20080;-67
2024/01/29 03:38:47;;;;;;;7.18;4.22;;;4.50;99.90;;;;;;5029164;28;20049;-68
2024/01/29 03:41:13;;;;;;;10.82;5.57;;;4.50;99.90;;;;;;5029405;28;20073;-68
2024/01/29 03:43:38;;;;;;;8.57;4.55;;;4.40;99.90;;;;;;5029262;28;20057;-68
2024/01/29 03:46:04;;;;;;;8.27;4.00;;;4.50;99.90;;;;;;5029536;28;20092;-68
2024/01/29 03:48:30;;;;;;;6.68;4.50;;;4.40;99.90;;;;;;5032657;28;20052;-68
2024/01/29 03:50:56;;;;;;;5.93;4.22;;;4.40;99.90;;;;;;5032790;28;20041;-68
2024/01/29 03:53:21;;;;;;;7.57;4.72;;;4.40;99.90;;;;;;5032813;28;20041;-68
2024/01/29 03:55:47;;;;;;;7.38;4.90;;;4.50;99.90;;;;;;5032535;28;20048;-67
2024/01/29 03:58:13;;;;;;;7.50;4.90;;;4.40;99.90;;;;;;5032634;28;20045;-68
2024/01/29 04:00:39;;;;;;;7.72;4.38;;;4.40;99.90;;;;;;5032447;28;20080;-68
2024/01/29 04:03:06;;;;;;;7.10;4.90;;;4.40;99.90;;;;;;5032632;28;20048;-68
2024/01/29 04:05:32;;;;;;;5.97;4.40;;;4.40;99.90;;;;;;5031191;28;20705;-68
2024/01/29 04:07:59;;;;;;;7.43;4.80;;;4.40;99.90;;;;;;5047485;28;20045;-67
2024/01/29 04:10:24;;;;;;;5.70;4.45;;;4.30;99.90;;;;;;5032018;28;20431;-67
2024/01/29 04:12:50;;;;;;;6.95;4.78;;;4.30;99.90;;;;;;5032375;28;20103;-68
2024/01/29 04:15:16;;;;;;;8.82;4.45;;;4.30;99.90;;;;;;5032062;28;20343;-68
2024/01/29 04:17:41;;;;;;;8.57;5.13;;;4.30;99.90;;;;;;5032397;28;20045;-68
2024/01/29 04:20:08;;;;;;;6.38;3.97;;;4.30;99.90;;;;;;5032091;28;20056;-68
2024/01/29 04:22:33;;;;;;;8.25;4.65;;;4.30;99.90;;;;;;5032254;28;20124;-68
2024/01/29 04:25:04;;;;;;;7.97;4.57;;;4.20;99.90;;;;;;5032428;28;20124;-67
2024/01/29 04:27:30;;;;;;;7.55;5.05;;;4.30;99.90;;;;;;5032139;28;20061;-68
2024/01/29 04:29:56;;;;;;;7.18;4.70;;;4.30;99.90;;;;;;5032326;28;20147;-68
2024/01/29 04:32:22;;;;;;;6.53;4.38;;;4.40;99.90;;;;;;5032273;28;20147;-68
2024/01/29 04:34:47;;;;;;;9.27;5.75;;;4.30;99.90;;;;;;5032075;28;20034;-68
2024/01/29 04:37:14;;;;;;;7.10;5.32;;;4.30;99.90;;;;;;5031796;28;20491;-68
2024/01/29 04:39:39;;;;;;;9.90;4.45;;;4.30;99.90;;;;;;5031722;28;20057;-68
2024/01/29 04:42:06;;;;;;;7.45;4.45;;;4.40;99.90;;;;;;5013877;28;20048;-68
2024/01/29 04:44:32;;;;;;;11.23;4.93;;;4.40;99.90;;;;;;5031708;28;20041;-68
2024/01/29 04:47:00;;;;;;;7.68;4.53;;;4.40;99.90;;;;;;5031728;28;20386;-68
2024/01/29 04:49:26;;;;;;;7.68;4.65;;;4.40;99.90;;;;;;5031580;28;20121;-68
2024/01/29 04:51:51;;;;;;;7.00;4.32;;;4.40;99.90;;;;;;5031625;28;20120;-67
2024/01/29 04:54:17;;;;;;;7.85;4.80;;;4.40;99.90;;;;;;5031399;28;20091;-68
2024/01/29 04:56:43;;;;;;;7.90;4.63;;;4.40;99.90;;;;;;5031536;28;20083;-68
2024/01/29 04:59:09;;;;;;;10.15;4.50;;;4.50;99.90;;;;;;5031191;28;20088;-68
2024/01/29 05:01:35;;;;;;;7.45;4.47;;;4.40;99.90;;;;;;5031468;28;20124;-67
2024/01/29 05:04:00;;;;;;;10.45;4.40;;;4.50;99.90;;;;;;5031312;28;20037;-67
2024/01/29 05:06:26;;;;;;;6.53;4.03;;;4.40;99.90;;;;;;5031423;28;20048;-67
2024/01/29 05:08:52;;;;;;;7.18;4.68;;;4.40;99.90;;;;;;5030893;28;20124;-67
2024/01/29 05:11:18;;;;;;;7.13;4.50;;;4.40;99.90;;;;;;5015331;28;20045;-67
2024/01/29 05:13:43;;;;;;;6.45;4.80;;;4.30;99.90;;;;;;5009397;28;20077;-68
2024/01/29 05:16:12;;;;;;;8.38;4.32;;;4.30;99.90;;;;;;4991671;28;20624;-67
2024/01/29 05:18:38;;;;;;;6.10;4.47;;;4.30;99.90;;;;;;4991904;28;20092;-67
2024/01/29 05:21:04;;;;;;;6.22;4.47;;;4.30;99.90;;;;;;4991822;28;20500;-67
2024/01/29 05:23:30;;;;;;;8.02;4.65;;;4.30;99.90;;;;;;4991703;28;20042;-67
2024/01/29 05:25:56;;;;;;;11.00;4.50;;;4.30;99.90;;;;;;4994077;28;20046;-67
2024/01/29 05:28:22;;;;;;;7.47;4.60;;;4.20;99.90;;;;;;5010520;28;20152;-68
2024/01/29 05:30:50;;;;;;;8.52;4.47;;;4.20;99.90;;;;;;5011192;28;20041;-68
2024/01/29 05:33:16;;;;;;;6.72;4.10;;;4.20;99.90;;;;;;5011112;28;20504;-68
2024/01/29 05:35:42;;;;;;;6.20;4.28;;;4.10;99.90;;;;;;5011146;28;20122;-67
2024/01/29 05:38:08;;;;;;;8.93;4.82;;;4.20;99.90;;;;;;5010919;28;20402;-68
2024/01/29 05:40:33;;;;;;;9.55;4.75;;;4.20;99.90;;;;;;5010822;28;20049;-68
2024/01/29 05:42:59;;;;;;;7.78;4.20;;;4.20;99.90;;;;;;5010891;28;20100;-67
2024/01/29 05:45:25;;;;;;;10.30;5.25;;;4.20;99.90;;;;;;5010713;28;20128;-68
2024/01/29 05:47:50;;;;;;;6.10;4.63;;;4.20;99.90;;;;;;5010721;28;20037;-68
2024/01/29 05:50:16;;;;;;;7.07;5.28;;;4.20;99.90;;;;;;5011011;28;20046;-67
2024/01/29 05:52:42;;;;;;;5.88;4.55;;;4.20;99.90;;;;;;5010815;28;20089;-67
2024/01/29 05:55:08;;;;;;;5.80;4.45;;;4.20;99.90;;;;;;5009323;28;20121;-68
2024/01/29 05:57:34;;;;;;;10.48;4.68;;;4.20;99.90;;;;;;5011034;28;20379;-67
2024/01/29 06:00:00;;;;;;;7.07;4.97;;;4.20;99.90;;;;;;5010800;28;20038;-67
2024/01/29 06:02:25;;;;;;;8.02;4.93;;;4.20;99.90;;;;;;5009292;28;20045;-67
2024/01/29 06:04:51;;;;;;;12.13;5.47;;;4.20;99.90;;;;;;5010464;28;20396;-68
2024/01/29 06:07:17;;;;;;;6.70;4.47;;;4.20;99.90;;;;;;5010200;28;20087;-68
2024/01/29 06:09:42;;;;;;;8.98;4.82;;;4.20;99.90;;;;;;5009687;28;20053;-68
2024/01/29 06:12:08;;;;;;;8.10;5.03;;;4.20;99.90;;;;;;5010655;28;20053;-68
2024/01/29 06:14:34;;;;;;;8.98;5.00;;;4.30;99.90;;;;;;5010530;28;20034;-68
2024/01/29 06:17:00;;;;;;;5.57;4.70;;;4.20;99.90;;;;;;5009297;28;20053;-68
2024/01/29 06:19:25;;;;;;;10.75;4.88;;;4.30;99.90;;;;;;5010617;28;20045;-68
2024/01/29 06:21:51;;;;;;;7.07;4.30;;;4.30;99.90;;;;;;5010426;28;20045;-68
2024/01/29 06:24:17;;;;;;;8.95;5.30;;;4.20;99.90;;;;;;5010157;28;20576;-68
2024/01/29 06:26:43;;;;;;;8.25;5.03;;;4.20;99.90;;;;;;5010473;28;20073;-68
2024/01/29 06:29:09;;;;;;;7.63;4.57;;;4.10;99.90;;;;;;5010200;28;20708;-68
2024/01/29 06:31:41;;;;;;;9.15;4.90;;;4.10;99.90;;;;;;5010281;28;20042;-68
2024/01/29 06:34:07;;;;;;;6.93;4.80;;;4.20;99.90;;;;;;5010370;28;20041;-68
2024/01/29 06:36:33;;;;;;;6.93;4.80;;;4.10;99.90;;;;;;5010182;28;20644;-68
2024/01/29 06:38:59;;;;;;;8.63;5.43;;;4.10;99.90;;;;;;5009881;28;20038;-68
2024/01/29 06:41:26;;;;;;;7.63;5.93;;;4.10;99.90;;;;;;5010271;28;20223;-68
2024/01/29 06:43:53;;;;;;;6.97;5.07;;;4.10;99.90;;;;;;5010109;28;20148;-68
2024/01/29 06:46:20;;;;;;;6.57;4.70;;;4.10;99.90;;;;;;5010031;28;20061;-68
2024/01/29 06:48:45;;;;;;;7.53;5.18;;;4.10;99.90;;;;;;5009836;28;20057;-68
2024/01/29 06:51:12;;;;;;;9.23;5.10;;;4.10;99.90;;;;;;5009951;28;20038;-67
2024/01/29 06:53:38;;;;;;;6.38;4.45;;;4.10;99.90;;;;;;5009773;28;20159;-67
2024/01/29 06:56:04;;;;;;;8.90;4.68;;;4.00;99.90;;;;;;5009991;28;20045;-67
2024/01/29 06:58:31;;;;;;;9.35;5.43;;;4.10;99.90;;;;;;5010103;28;20061;-67
2024/01/29 07:00:56;;;;;;;10.25;5.55;;;4.10;99.90;;;;;;5010121;28;20050;-68
2024/01/29 07:03:22;;;;;;;6.60;5.18;;;4.10;99.90;;;;;;5009769;28;20167;-68
2024/01/29 07:05:48;;;;;;;10.57;5.53;;;4.10;99.90;;;;;;5009479;28;20041;-68
2024/01/29 07:08:14;;;;;;;8.73;5.20;;;4.10;99.90;;;;;;5009351;28;20042;-68
2024/01/29 07:10:40;;;;;;;7.20;5.72;;;4.10;99.90;;;;;;5009561;28;20046;-67
2024/01/29 07:13:06;;;;;;;12.68;6.05;;;4.10;99.90;;;;;;5024876;28;20056;-68
2024/01/29 07:15:32;;;;;;;9.85;5.95;;;4.10;99.90;;;;;;5006710;28;20041;-67
2024/01/29 07:17:57;;;;;;;8.82;5.90;;;4.20;99.90;;;;;;5009478;28;20034;-68
2024/01/29 07:20:23;;;;;;;10.05;6.20;;;4.10;99.90;;;;;;5009899;28;20485;-68
2024/01/29 07:22:50;;;;;;;11.32;5.50;;;4.10;99.90;;;;;;5028695;28;20061;-68
2024/01/29 07:25:15;;;;;;;7.97;5.18;;;4.10;99.90;;;;;;5013511;28;20144;-68
2024/01/29 07:27:41;;;;;;;9.55;5.80;;;4.20;99.90;;;;;;5012963;28;20086;-68
2024/01/29 07:30:07;;;;;;;6.60;5.18;;;4.10;99.90;;;;;;5013472;28;20048;-68
2024/01/29 07:32:33;;;;;;;10.68;7.72;;;4.20;99.90;;;;;;5013193;28;20038;-68
2024/01/29 07:35:00;;;;;;;8.30;5.97;;;4.10;99.90;;;;;;5013511;28;20053;-68
2024/01/29 07:37:27;;;;;;;10.65;5.43;;;4.20;99.90;;;;;;5013306;28;20046;-68
2024/01/29 07:39:53;;;;;;;10.82;5.88;;;4.10;99.90;;;;;;5011718;28;20041;-68
2024/01/29 07:42:19;;;;;;;10.77;6.25;;;4.20;99.90;;;;;;5011904;28;20509;-68
2024/01/29 07:44:45;;;;;;;8.43;5.90;;;4.20;99.90;;;;;;5013080;28;20076;-68
2024/01/29 07:47:11;;;;;;;8.95;5.63;;;4.10;99.90;;;;;;5013189;28;20125;-68
2024/01/29 07:49:37;;;;;;;9.82;5.68;;;4.10;99.90;;;;;;5013239;28;20117;-68
2024/01/29 07:52:03;;;;;;;8.68;5.60;;;4.10;99.90;;;;;;5012016;28;20513;-68
2024/01/29 07:54:29;;;;;;;9.25;5.63;;;4.10;99.90;;;;;;5012770;28;20427;-68
2024/01/29 07:56:54;;;;;;;8.80;6.70;;;4.20;99.90;;;;;;5012907;28;20061;-68
2024/01/29 07:59:20;;;;;;;6.57;5.20;;;4.20;99.90;;;;;;5012568;28;20042;-68
2024/01/29 08:01:45;;;;;;;8.82;5.85;;;4.20;99.90;;;;;;5012580;28;20026;-68
2024/01/29 08:04:11;;;;;;;9.07;5.65;;;4.30;99.90;;;;;;5012594;28;20121;-68
2024/01/29 08:06:37;;;;;;;9.68;6.47;;;4.30;99.90;;;;;;5012087;28;20042;-67
2024/01/29 08:09:04;;;;;;;8.15;5.30;;;4.30;99.90;;;;;;5012215;28;20073;-68
2024/01/29 08:11:31;;;;;;;8.93;6.07;;;4.20;99.90;;;;;;5012079;28;20129;-67
2024/01/29 08:13:57;;;;;;;9.85;5.72;;;4.20;99.90;;;;;;5006331;28;20033;-68
2024/01/29 08:16:22;;;;;;;9.15;6.15;;;4.30;99.90;;;;;;5002584;28;20038;-68
2024/01/29 08:18:48;;;;;;;8.93;5.97;;;4.30;99.90;;;;;;4998421;28;20042;-68
2024/01/29 08:21:14;;;;;;;11.23;6.80;;;4.30;99.90;;;;;;4992574;28;20053;-67
2024/01/29 08:23:39;;;;;;;12.75;6.32;;;4.30;99.90;;;;;;4992898;28;20085;-68
2024/01/29 08:26:06;;;;;;;11.20;6.47;;;4.40;99.90;;;;;;4992714;28;20046;-68
2024/01/29 08:28:32;;;;;;;8.90;5.50;;;4.50;99.90;;;;;;4992535;28;20051;-68
2024/01/29 08:30:59;;;;;;;10.55;6.47;;;4.50;99.90;;;;;;5007545;28;20380;-67
2024/01/29 08:33:25;;;;;;;8.88;6.32;;;4.50;99.90;;;;;;4990858;28;20053;-68
2024/01/29 08:35:51;;;;;;;7.72;6.13;;;4.60;99.90;;;;;;5007390;28;20047;-68
2024/01/29 08:38:17;;;;;;;7.60;5.65;;;4.70;99.90;;;;;;5007543;28;20125;-68
2024/01/29 08:40:42;;;;;;;9.10;6.03;;;4.60;99.90;;;;;;4992526;28;20042;-68
2024/01/29 08:43:08;;;;;;;9.05;6.22;;;4.70;99.90;;;;;;4992649;28;20157;-69
2024/01/29 08:45:35;;;;;;;11.65;6.07;;;4.70;99.90;;;;;;4995796;28;20095;-69
2024/01/29 08:48:03;;;;;;;9.27;5.28;;;4.80;99.90;;;;;;5000730;28;20054;-69
2024/01/29 08:50:35;;;;;;;11.82;6.93;;;4.90;99.90;;;;;;5000597;28;20046;-68
2024/01/29 08:53:03;;;;;;;12.18;6.63;;;4.90;99.90;;;;;;4998010;28;20490;-69
2024/01/29 08:55:30;;;;;;;9.60;6.25;;;5.00;99.90;;;;;;4992376;28;20507;-69
2024/01/29 08:57:55;;;;;;;10.55;6.25;;;5.00;99.90;;;;;;4992032;28;20522;-68
2024/01/29 09:00:21;;;;;;;9.73;6.65;;;5.00;99.90;;;;;;4992224;28;20045;-68
2024/01/29 09:02:49;;;;;;;9.15;6.45;;;5.10;99.90;;;;;;4991971;28;20050;-70
2024/01/29 09:05:16;;;;;;;8.93;5.88;;;5.10;99.90;;;;;;4998076;28;20054;-69
2024/01/29 09:07:42;;;;;;;9.35;5.72;;;5.20;99.90;;;;;;5005736;28;20037;-69
2024/01/29 09:10:08;;;;;;;9.23;5.70;;;5.20;99.90;;;;;;5009530;28;20417;-70
2024/01/29 09:12:34;;;;;;;9.88;6.25;;;5.30;99.90;;;;;;5009248;28;20494;-69
2024/01/29 09:15:02;;;;;;;10.02;6.72;;;5.30;99.90;;;;;;5007281;28;20045;-70
2024/01/29 09:17:28;;;;;;;7.90;6.70;;;5.30;99.90;;;;;;5004529;28;20502;-71
2024/01/29 09:19:53;;;;;;;11.82;6.30;;;5.40;99.90;;;;;;5025396;28;20121;-70
2024/01/29 09:22:19;;;;;;;9.93;6.43;;;5.40;99.90;;;;;;5011445;28;20049;-70
2024/01/29 09:24:45;;;;;;;14.32;7.57;;;5.40;99.90;;;;;;5006485;28;20034;-69
2024/01/29 09:27:11;;;;;;;10.48;5.97;;;5.50;99.90;;;;;;5003918;28;20054;-69
2024/01/29 09:29:36;;;;;;;8.77;6.38;;;5.60;99.90;;;;;;5001307;28;20037;-69
2024/01/29 09:32:02;;;;;;;11.30;5.88;;;5.60;99.90;;;;;;5002995;28;20065;-68
2024/01/29 09:34:28;;;;;;;11.05;6.10;;;5.70;99.90;;;;;;4994270;28;20042;-69
2024/01/29 09:36:54;;;;;;;12.07;7.00;;;5.90;99.90;;;;;;4991440;28;20046;-69
2024/01/29 09:39:23;;;;;;;9.48;6.43;;;5.80;99.90;;;;;;4991295;28;20046;-70
2024/01/29 09:41:52;;;;;;;10.02;6.45;;;5.80;99.90;;;;;;4991333;28;20046;-70
2024/01/29 09:44:17;;;;;;;9.13;6.55;;;5.80;99.90;;;;;;4990808;28;20519;-70
2024/01/29 09:46:46;;;;;;;10.82;6.38;;;5.90;99.90;;;;;;4990262;28;20125;-70
2024/01/29 09:49:12;;;;;;;11.07;6.38;;;5.90;99.90;;;;;;4991601;28;20633;-70
2024/01/29 09:51:39;;;;;;;13.32;7.03;;;5.90;99.90;;;;;;4991358;28;20057;-70
2024/01/29 09:54:05;;;;;;;13.60;7.45;;;6.00;99.90;;;;;;4991191;28;20076;-70
2024/01/29 09:56:31;;;;;;;7.90;6.57;;;6.10;99.90;;;;;;4991004;28;20038;-70
2024/01/29 09:58:57;;;;;;;10.23;7.00;;;6.10;99.90;;;;;;4991310;28;20129;-70
2024/01/29 10:01:23;;;;;;;11.50;6.80;;;6.20;99.90;;;;;;4991208;28;20070;-69
2024/01/29 10:03:49;;;;;;;11.38;7.03;;;6.20;99.90;;;;;;4990672;28;20570;-70
2024/01/29 10:06:15;;;;;;;9.20;6.95;;;6.30;99.90;;;;;;4990957;28;20133;-70
2024/01/29 10:08:42;;;;;;;9.32;7.10;;;6.40;99.90;;;;;;4990716;28;20133;-70
2024/01/29 10:11:08;;;;;;;11.02;7.63;;;6.40;99.90;;;;;;4990716;28;20476;-70
2024/01/29 10:13:34;;;;;;;13.63;7.45;;;6.40;99.90;;;;;;4990993;28;20073;-70
2024/01/29 10:16:00;;;;;;;11.68;7.22;;;6.50;99.90;;;;;;4990871;28;20038;-70
2024/01/29 10:18:26;;;;;;;13.02;8.48;;;6.50;99.90;;;;;;4990580;28;20685;-70
2024/01/29 10:21:05;;;;;;;11.93;7.25;;;6.50;99.90;;;;;;4990665;28;20078;-70
2024/01/29 10:23:31;;;;;;;11.63;7.18;;;6.50;99.90;;;;;;4990417;28;20040;-70
2024/01/29 10:26:00;;;;;;;12.77;7.63;;;6.50;99.90;;;;;;4990913;28;20038;-70
2024/01/29 10:28:29;;;;;;;14.38;7.03;;;6.60;99.90;;;;;;4990503;28;20516;-70
2024/01/29 10:30:55;;;;;;;12.10;7.82;;;6.60;99.90;;;;;;4989126;28;20054;-69
2024/01/29 10:33:21;;;;;;;12.32;7.30;;;6.60;99.90;;;;;;4990787;28;20449;-70
2024/01/29 10:35:49;;;;;;;13.73;7.57;;;6.60;99.90;;;;;;4990415;28;20093;-70
2024/01/29 10:38:18;;;;;;;10.63;7.68;;;6.70;99.90;;;;;;4990571;28;20060;-70
2024/01/29 10:40:45;;;;;;;10.05;7.75;;;6.80;99.90;;;;;;4990607;28;20050;-70
2024/01/29 10:43:18;;;;;;;12.43;8.20;;;6.80;99.90;;;;;;4990447;28;20042;-70
2024/01/29 10:45:48;;;;;;;10.95;8.07;;;6.70;99.90;;;;;;4990468;28;20069;-70
2024/01/29 10:48:20;;;;;;;12.48;7.55;;;6.80;99.90;;;;;;4990207;28;20061;-70
2024/01/29 10:50:47;;;;;;;;;;;6.70;99.90;;;;;;4990867;28;20402;-70
2024/01/29 10:53:16;;;;;;;13.15;9.50;;;6.80;99.90;;;;;;4990575;28;19918;-70
2024/01/29 10:55:49;;;;;;;12.52;7.85;;;6.90;99.90;;;;;;4992098;28;20566;-70
2024/01/29 10:58:16;;;;;;;14.57;8.63;;;6.90;99.90;;;;;;4994358;28;20054;-70
2024/01/29 11:00:43;;;;;;;12.90;8.70;;;6.90;99.90;;;;;;4994390;28;20121;-69
2024/01/29 11:03:13;;;;;;;12.63;8.40;;;6.90;99.90;;;;;;4994229;28;20062;-70
2024/01/29 11:05:42;;;;;;;12.15;8.02;;;6.90;99.90;;;;;;4994193;28;20046;-70
2024/01/29 11:08:16;;;;;;;12.18;9.13;;;7.00;99.90;;;;;;4994311;28;20052;-70
2024/01/29 11:10:41;;;;;;;13.52;8.38;;;7.00;99.90;;;;;;5021450;28;20802;-69
2024/01/29 11:13:10;;;;;;;13.35;8.30;;;7.10;99.90;;;;;;5033428;28;20045;-69
2024/01/29 11:15:36;;;;;;;11.25;8.27;;;7.10;99.90;;;;;;5033325;28;20041;-69
2024/01/29 11:18:02;;;;;;;11.88;8.50;;;7.20;99.90;;;;;;5033602;28;20052;-69
2024/01/29 11:20:32;;;;;;;14.13;8.65;;;7.30;99.90;;;;;;5033579;28;20045;-69
2024/01/29 11:22:59;;;;;;;14.43;8.35;;;7.30;99.90;;;;;;5033579;28;20081;-70
2024/01/29 11:25:29;;;;;;;14.05;8.43;;;7.30;99.90;;;;;;5033341;28;20458;-69
2024/01/29 11:27:58;;;;;;;15.85;9.27;;;7.40;99.90;;;;;;5033057;28;20033;-70
2024/01/29 11:30:26;;;;;;;17.17;9.40;;;7.40;99.90;;;;;;5033222;28;20052;-69
2024/01/29 11:33:11;;;;;;;12.90;8.85;;;7.50;99.90;;;;;;5033412;28;20038;-70
2024/01/29 11:35:37;;;;;;;14.32;8.77;;;7.60;99.90;;;;;;5003213;28;20452;-69
2024/01/29 11:38:13;;;;;;;14.48;9.05;;;7.70;99.90;;;;;;5008203;28;20042;-69
2024/01/29 11:40:41;;;;;;;15.10;9.98;;;7.60;99.90;;;;;;4992463;28;20069;-69
2024/01/29 11:43:20;;;;;;;11.52;8.52;;;7.80;99.90;;;;;;4993601;28;20069;-70
2024/01/29 11:45:53;;;;;;;13.15;9.40;;;7.80;99.90;;;;;;4994701;28;20041;-69
2024/01/29 11:48:21;;;;;;;13.27;8.85;;;7.90;99.90;;;;;;5004367;28;20133;-69
2024/01/29 11:50:56;;;;;;;13.90;9.10;;;7.90;99.90;;;;;;4992308;28;20054;-69
2024/01/29 11:53:25;;;;;;;13.70;9.05;;;8.00;99.90;;;;;;4993462;28;20030;-69
2024/01/29 11:55:52;;;;;;;13.70;9.57;;;8.20;99.90;;;;;;4991872;28;20051;-69
2024/01/29 11:58:22;;;;;;;13.48;10.10;;;8.20;99.90;;;;;;4993112;28;20050;-69
2024/01/29 12:00:50;;;;;;;15.02;9.85;;;8.30;99.90;;;;;;4993286;28;20129;-69
2024/01/29 12:03:20;;;;;;;15.18;9.82;;;8.30;99.90;;;;;;4993105;28;20509;-69
2024/01/29 12:05:46;;;;;;;16.35;9.57;;;8.30;99.90;;;;;;4993317;28;20406;-69
2024/01/29 12:08:18;;;;;;;17.95;9.93;;;8.30;99.90;;;;;;5000156;28;20049;-69
2024/01/29 12:10:45;;;;;;;15.57;10.30;;;8.40;99.90;;;;;;4994976;28;20462;-69
2024/01/29 12:13:16;;;;;;;19.05;10.32;;;8.40;99.90;;;;;;4991630;28;20124;-70
2024/01/29 12:15:42;;;;;;;16.63;10.25;;;8.50;99.90;;;;;;4992912;28;20038;-69
2024/01/29 12:18:24;;;;;;;16.27;10.13;;;8.40;99.90;;;;;;4992701;28;20560;-70
2024/01/29 12:20:51;;;;;;;13.27;9.95;;;8.50;99.90;;;;;;5008123;28;20057;-70
2024/01/29 12:23:18;;;;;;;15.20;10.27;;;8.40;99.90;;;;;;4992997;28;20416;-69
2024/01/29 12:25:45;;;;;;;13.52;10.35;;;8.50;99.90;;;;;;4992829;28;20081;-69
2024/01/29 12:28:15;;;;;;;16.40;10.02;;;8.50;99.90;;;;;;5007174;28;20045;-69
2024/01/29 12:30:55;;;;;;;13.82;10.60;;;8.40;99.90;;;;;;4993639;28;20026;-71
2024/01/29 12:33:28;;;;;;;16.98;10.20;;;8.50;99.90;;;;;;5026435;28;20183;-70
2024/01/29 12:36:09;;;;;;;13.93;9.18;;;8.40;99.90;;;;;;5030683;28;20489;-74
2024/01/29 12:38:35;;;;;;;15.80;9.88;;;8.40;99.90;;;;;;5030727;28;20056;-70
2024/01/29 12:41:00;;;;;;;16.20;9.90;;;8.50;99.90;;;;;;5031725;28;20393;-70
2024/01/29 12:43:27;;;;;;;16.38;10.25;;;8.50;99.90;;;;;;5031808;28;20045;-70
2024/01/29 12:46:03;;;;;;;14.27;9.73;;;8.60;99.90;;;;;;5025041;28;20449;-70
2024/01/29 12:48:29;;;;;;;14.98;10.07;;;8.60;99.90;;;;;;5003395;28;20195;-70
2024/01/29 12:50:55;;;;;;;16.58;10.18;;;8.60;99.90;;;;;;5010070;28;20484;-70